LIRZ/PEG METAR and TAF weather

Enter ICAO airport designator
Station Type Date Time Source
LIRZ METAR 2021/05/13 18:20 UTC NOAA

LIRZ 131820Z AUTO 34003KT 200V010 9999 // BKN033/// 13/11 Q1007 RERA


Station Type Date Time Source
LIRZ Decoded METAR 2021/05/13 18:20 UTC NOAA

Perugia, Italy (LIRZ) 43-05N 012-30E 205M
May 13, 2021 - 02:20 PM EDT / 2021.05.13 1820 UTC
Wind: from the NNW (340 degrees) at 3 MPH (3 KT) (direction variable):0
Visibility: greater than 7 mile(s):0
Sky conditions: mostly cloudy
Temperature: 55 F (13 C)
Dew Point: 51 F (11 C)
Relative Humidity: 87%
Pressure (altimeter): 29.74 in. Hg (1007 hPa)
ob: LIRZ 131820Z AUTO 34003KT 200V010 9999 // BKN033/// 13/11 Q1007 RERA
cycle: 18

Station Type Date Time Source
LIRZ TAF 2021/05/13 18:21 UTC NOAA

TAF LIRZ 131700Z 1318/1418 20012KT 9999 BKN040
TEMPO 1318/1324 4000 TSRA BKN010
TEMPO 1411/1418 4000 SHRA BKN010

Example: see airport list